createdAt,value
2017-11-27T00:01:05.499Z,12.60
2017-11-27T00:02:06.509Z,12.90
2017-11-27T00:04:00.057Z,12.90
2017-11-27T00:05:00.052Z,15.60
2017-11-27T00:06:54.201Z,12.50
2017-11-27T00:07:52.750Z,13.60
2017-11-27T00:09:47.138Z,15.40
2017-11-27T00:10:47.174Z,13.90
2017-11-27T00:12:39.864Z,12.80
2017-11-27T00:13:40.772Z,14.80
2017-11-27T00:15:33.144Z,14.80
2017-11-27T00:16:33.326Z,16.10
2017-11-27T00:18:26.943Z,15.40
2017-11-27T00:19:27.914Z,17.10
2017-11-27T00:21:21.441Z,16.30
2017-11-27T00:22:20.586Z,15.80
2017-11-27T00:24:14.084Z,13.10
2017-11-27T00:25:15.051Z,14.90
2017-11-27T00:27:08.540Z,13.90
2017-11-27T00:28:08.592Z,14.60
2017-11-27T00:30:02.717Z,15.50
2017-11-27T00:31:01.986Z,14.90
2017-11-27T00:32:55.509Z,17.50
2017-11-27T00:33:55.620Z,16.30
2017-11-27T00:35:48.330Z,11.10
2017-11-27T00:36:49.190Z,13.50
2017-11-27T00:38:42.729Z,16.60
2017-11-27T00:39:41.876Z,17.10
2017-11-27T00:41:35.156Z,13.30
2017-11-27T00:42:36.334Z,16.10
2017-11-27T00:44:29.845Z,16.90
2017-11-27T00:45:29.065Z,14.80
2017-11-27T00:47:22.598Z,15.60
2017-11-27T00:48:23.439Z,16.80
2017-11-27T00:50:15.872Z,17.20
2017-11-27T00:51:16.954Z,17.80
2017-11-27T00:53:10.436Z,13.10
2017-11-27T00:54:10.504Z,18.70
2017-11-27T00:56:04.022Z,16.40
2017-11-27T00:57:02.063Z,15.00
2017-11-27T00:58:56.565Z,17.50
2017-11-27T00:59:57.623Z,18.30
2017-11-27T01:01:49.862Z,14.00
2017-11-27T01:02:50.205Z,11.20
2017-11-27T01:04:43.858Z,14.40
2017-11-27T01:05:43.940Z,12.60
2017-11-27T01:07:38.348Z,19.00
2017-11-27T01:08:38.328Z,16.50
2017-11-27T01:10:32.432Z,12.90
2017-11-27T01:11:31.838Z,18.10
2017-11-27T01:13:24.543Z,14.90
2017-11-27T01:14:25.014Z,20.30
2017-11-27T01:16:18.952Z,14.50
2017-11-27T01:17:19.014Z,16.70
2017-11-27T01:19:11.586Z,15.90
2017-11-27T01:20:12.546Z,13.70
2017-11-27T01:22:06.054Z,17.70
2017-11-27T01:23:06.092Z,19.20
2017-11-27T01:24:58.721Z,13.20
2017-11-27T01:25:59.656Z,15.40
2017-11-27T01:27:53.042Z,17.20
2017-11-27T01:28:53.177Z,17.50
2017-11-27T01:30:45.808Z,16.20
2017-11-27T01:31:45.838Z,14.90
2017-11-27T01:33:39.128Z,14.00
2017-11-27T01:34:39.400Z,15.20
2017-11-27T01:36:32.927Z,14.70
2017-11-27T01:37:33.868Z,16.50
2017-11-27T01:39:26.315Z,13.60
2017-11-27T01:40:27.436Z,13.10
2017-11-27T01:42:20.096Z,16.00
2017-11-27T01:43:20.942Z,15.40
2017-11-27T01:45:14.506Z,13.10
2017-11-27T01:46:13.694Z,15.90
2017-11-27T01:48:07.178Z,15.40
2017-11-27T01:49:08.057Z,15.10
2017-11-27T01:51:00.673Z,14.00
2017-11-27T01:52:01.667Z,14.90
2017-11-27T01:53:54.083Z,14.00
2017-11-27T01:54:56.103Z,13.70
2017-11-27T01:56:47.837Z,15.80
2017-11-27T01:57:48.726Z,18.70
2017-11-27T01:59:42.228Z,14.80
2017-11-27T02:00:42.332Z,16.40
2017-11-27T02:02:34.852Z,12.70
2017-11-27T02:03:35.875Z,16.20
2017-11-27T02:05:29.402Z,15.00
2017-11-27T02:06:29.414Z,14.90
2017-11-27T02:08:22.112Z,12.80
2017-11-27T02:09:22.158Z,13.40
2017-11-27T02:11:17.441Z,14.10
2017-11-27T02:12:16.564Z,14.10
2017-11-27T02:14:09.249Z,16.30
2017-11-27T02:15:10.113Z,15.10
2017-11-27T02:17:03.717Z,13.80
2017-11-27T02:18:03.626Z,12.60
2017-11-27T02:19:56.070Z,17.60
2017-11-27T02:20:57.227Z,15.50
2017-11-27T02:22:50.712Z,12.30
2017-11-27T02:23:50.788Z,13.50
2017-11-27T02:25:43.445Z,19.80
2017-11-27T02:26:44.317Z,16.10
2017-11-27T02:28:37.005Z,15.70
2017-11-27T02:29:37.032Z,16.20
2017-11-27T02:31:30.571Z,13.30
2017-11-27T02:32:31.395Z,14.70
2017-11-27T02:34:24.951Z,14.50
2017-11-27T02:35:24.957Z,12.80
2017-11-27T02:37:17.585Z,11.00
2017-11-27T02:38:17.764Z,12.10
2017-11-27T02:40:13.005Z,13.90
2017-11-27T02:41:11.099Z,12.40
2017-11-27T02:43:04.712Z,12.40
2017-11-27T02:44:05.621Z,10.90
2017-11-27T02:45:59.829Z,14.70
2017-11-27T02:46:59.212Z,11.70
2017-11-27T02:48:53.321Z,14.20
2017-11-27T02:49:51.943Z,12.90
2017-11-27T02:51:46.297Z,12.50
2017-11-27T02:52:46.300Z,15.00
2017-11-27T02:54:38.875Z,14.40
2017-11-27T02:55:38.890Z,15.70
2017-11-27T02:57:33.407Z,12.00
2017-11-27T02:58:33.408Z,11.40
2017-11-27T03:00:26.054Z,11.80
2017-11-27T03:01:26.234Z,11.70
2017-11-27T03:03:20.515Z,12.30
2017-11-27T03:04:20.446Z,9.50
2017-11-27T03:06:13.209Z,12.30
2017-11-27T03:07:13.199Z,11.60
2017-11-27T03:09:06.357Z,12.30
2017-11-27T03:10:06.769Z,13.10
2017-11-27T03:12:00.305Z,12.20
2017-11-27T03:13:01.264Z,10.30
2017-11-27T03:14:54.774Z,11.20
2017-11-27T03:15:53.281Z,13.80
2017-11-27T03:17:47.126Z,14.30
2017-11-27T03:18:48.327Z,12.20
2017-11-27T03:20:41.864Z,14.40
2017-11-27T03:21:41.850Z,12.40
2017-11-27T03:23:34.517Z,12.20
2017-11-27T03:24:34.519Z,12.60
2017-11-27T03:26:28.964Z,12.50
2017-11-27T03:27:28.979Z,11.60
2017-11-27T03:29:21.637Z,15.50
2017-11-27T03:30:22.514Z,13.60
2017-11-27T03:32:16.087Z,12.90
2017-11-27T03:33:15.459Z,13.80
2017-11-27T03:35:08.790Z,13.70
2017-11-27T03:36:09.633Z,13.60
2017-11-27T03:38:03.233Z,14.30
2017-11-27T03:39:03.194Z,15.10
2017-11-27T03:40:55.864Z,12.70
2017-11-27T03:41:56.747Z,12.60
2017-11-27T03:43:50.316Z,14.40
2017-11-27T03:44:50.184Z,17.40
2017-11-27T03:46:43.017Z,15.60
2017-11-27T03:47:42.920Z,16.50
2017-11-27T03:49:36.242Z,17.70
2017-11-27T03:50:36.470Z,15.30
2017-11-27T03:52:29.907Z,18.90
2017-11-27T03:53:31.014Z,15.40
2017-11-27T03:55:24.561Z,15.90
2017-11-27T03:56:23.651Z,15.90
2017-11-27T03:58:17.194Z,16.90
2017-11-27T03:59:18.112Z,19.10
2017-11-27T04:01:11.641Z,15.70
2017-11-27T04:02:11.625Z,12.70
2017-11-27T04:04:04.305Z,13.20
2017-11-27T04:05:04.233Z,16.50
2017-11-27T04:06:57.777Z,15.90
2017-11-27T04:07:58.792Z,15.10
2017-11-27T04:09:51.382Z,14.10
2017-11-27T04:10:52.297Z,13.90
2017-11-27T04:12:45.898Z,13.80
2017-11-27T04:13:45.032Z,14.60
2017-11-27T04:15:37.190Z,15.30
2017-11-27T04:16:39.450Z,12.70
2017-11-27T04:18:32.975Z,13.20
2017-11-27T04:19:32.117Z,11.40
2017-11-27T04:21:25.662Z,16.00
2017-11-27T04:22:26.525Z,13.90
2017-11-27T04:24:18.914Z,12.30
2017-11-27T04:25:20.081Z,11.30
2017-11-27T04:27:12.583Z,12.70
2017-11-27T04:28:13.676Z,14.70
2017-11-27T04:30:07.056Z,13.10
2017-11-27T04:31:07.204Z,14.00
2017-11-27T04:33:00.091Z,12.50
2017-11-27T04:34:00.793Z,13.00
2017-11-27T04:35:54.292Z,11.70
2017-11-27T04:36:54.338Z,12.00
2017-11-27T04:38:47.073Z,10.90
2017-11-27T04:39:47.933Z,11.00
2017-11-27T04:41:41.415Z,14.90
2017-11-27T04:42:40.540Z,12.20
2017-11-27T04:44:32.176Z,11.60
2017-11-27T04:45:34.962Z,11.20
2017-11-27T04:47:27.748Z,11.70
2017-11-27T04:48:28.523Z,12.30
2017-11-27T04:50:19.941Z,11.60
2017-11-27T04:51:22.082Z,11.20
2017-11-27T04:53:14.718Z,9.60
2017-11-27T04:54:15.634Z,10.90
2017-11-27T04:56:09.155Z,11.90
2017-11-27T04:57:09.190Z,11.50
2017-11-27T04:59:01.690Z,13.90
2017-11-27T05:00:02.820Z,12.10
2017-11-27T05:01:56.297Z,11.60
2017-11-27T05:02:56.362Z,12.70
2017-11-27T05:04:48.306Z,11.10
2017-11-27T05:05:49.890Z,9.80
2017-11-27T05:07:42.543Z,11.00
2017-11-27T05:08:43.443Z,11.30
2017-11-27T05:10:36.052Z,10.90
2017-11-27T05:11:36.966Z,12.00
2017-11-27T05:13:30.526Z,12.00
2017-11-27T05:14:30.553Z,12.40
2017-11-27T05:16:23.154Z,13.00
2017-11-27T05:17:24.113Z,12.50
2017-11-27T05:19:17.698Z,11.80
2017-11-27T05:20:17.633Z,14.40
2017-11-27T05:22:10.270Z,15.50
2017-11-27T05:23:11.260Z,12.50
2017-11-27T05:25:01.872Z,15.40
2017-11-27T05:26:04.777Z,15.00
2017-11-27T05:27:57.334Z,13.10
2017-11-27T05:28:58.342Z,11.70
2017-11-27T05:30:51.851Z,10.40
2017-11-27T05:31:51.890Z,10.10
2017-11-27T05:33:44.492Z,12.80
2017-11-27T05:34:45.473Z,13.80
2017-11-27T05:36:38.389Z,12.00
2017-11-27T05:37:39.017Z,13.00
2017-11-27T05:39:31.645Z,10.70
2017-11-27T05:40:32.508Z,10.80
2017-11-27T05:42:24.140Z,11.90
2017-11-27T05:43:26.114Z,10.80
2017-11-27T05:45:18.708Z,11.40
2017-11-27T05:46:19.623Z,9.90
2017-11-27T05:48:13.038Z,9.00
2017-11-27T05:49:13.196Z,10.60
2017-11-27T05:51:05.694Z,12.60
2017-11-27T05:52:06.782Z,12.30
2017-11-27T05:54:00.298Z,8.80
2017-11-27T05:54:58.376Z,7.70
2017-11-27T05:56:54.443Z,13.60
2017-11-27T05:57:53.872Z,12.40
2017-11-27T05:59:46.548Z,10.30
2017-11-27T06:00:47.458Z,8.00
2017-11-27T06:02:40.989Z,11.20
2017-11-27T06:03:40.962Z,8.30
2017-11-27T06:05:33.610Z,8.90
2017-11-27T06:06:34.591Z,7.90
2017-11-27T06:08:28.103Z,10.50
2017-11-27T06:09:28.118Z,9.20
2017-11-27T06:11:20.632Z,11.40
2017-11-27T06:12:18.955Z,9.10
2017-11-27T06:14:15.188Z,7.00
2017-11-27T06:15:13.443Z,7.50
2017-11-27T06:17:07.769Z,8.90
2017-11-27T06:18:08.778Z,9.30
2017-11-27T06:20:02.301Z,8.00
2017-11-27T06:21:02.334Z,8.40
2017-11-27T06:22:54.884Z,8.50
2017-11-27T06:23:55.918Z,9.30
2017-11-27T06:25:49.460Z,10.30
2017-11-27T06:26:49.410Z,8.10
2017-11-27T06:28:41.856Z,6.50
2017-11-27T06:29:41.832Z,7.80
2017-11-27T06:31:37.143Z,10.40
2017-11-27T06:32:36.588Z,10.00
2017-11-27T06:34:30.115Z,10.70
2017-11-27T06:35:30.080Z,9.00
2017-11-27T06:37:22.687Z,8.60
2017-11-27T06:38:23.670Z,6.30
2017-11-27T06:40:17.129Z,7.60
2017-11-27T06:41:17.217Z,6.50
2017-11-27T06:43:11.311Z,6.60
2017-11-27T06:44:11.633Z,7.80
2017-11-27T06:46:04.284Z,7.70
2017-11-27T06:47:03.160Z,6.80
2017-11-27T06:48:56.994Z,7.70
2017-11-27T06:49:57.837Z,9.60
2017-11-27T06:51:51.446Z,9.50
2017-11-27T06:52:51.399Z,8.10
2017-11-27T06:54:48.682Z,7.90
2017-11-27T06:55:44.998Z,7.60
2017-11-27T06:57:38.321Z,9.30
2017-11-27T06:58:38.589Z,6.40
2017-11-27T07:00:32.378Z,7.80
2017-11-27T07:01:32.213Z,5.60
2017-11-27T07:03:25.657Z,7.00
2017-11-27T07:04:22.953Z,6.70
2017-11-27T07:06:18.162Z,8.10
2017-11-27T07:07:19.276Z,6.90
2017-11-27T07:09:11.306Z,10.60
2017-11-27T07:10:12.746Z,6.00
2017-11-27T07:12:05.275Z,8.40
2017-11-27T07:13:06.343Z,6.60
2017-11-27T07:14:59.887Z,6.60
2017-11-27T07:15:59.849Z,8.30
2017-11-27T07:17:53.374Z,8.80
2017-11-27T07:18:53.508Z,8.20
2017-11-27T07:20:46.965Z,6.20
2017-11-27T07:21:44.302Z,7.90
2017-11-27T07:23:39.356Z,6.70
2017-11-27T07:24:40.519Z,8.50
2017-11-27T07:26:34.087Z,10.60
2017-11-27T07:27:34.112Z,8.80
2017-11-27T07:29:26.618Z,10.30
2017-11-27T07:30:27.634Z,10.10
2017-11-27T07:32:20.094Z,8.90
2017-11-27T07:33:21.218Z,8.60
2017-11-27T07:35:14.683Z,8.60
2017-11-27T07:36:14.787Z,9.50
2017-11-27T07:38:06.670Z,7.20
2017-11-27T07:39:05.665Z,9.00
2017-11-27T07:41:01.860Z,8.90
2017-11-27T07:42:00.149Z,8.40
2017-11-27T07:43:54.605Z,7.90
2017-11-27T07:46:08.863Z,9.00
2017-11-27T07:47:08.864Z,7.60
2017-11-27T07:49:01.390Z,10.40
2017-11-27T07:51:19.204Z,9.70
2017-11-27T07:52:15.779Z,9.90
2017-11-27T07:54:07.956Z,8.60
2017-11-27T07:55:09.499Z,10.00
2017-11-27T07:57:02.844Z,8.60
2017-11-27T07:58:01.160Z,11.90
2017-11-27T07:59:56.271Z,12.30
2017-11-27T08:00:56.487Z,11.00
2017-11-27T08:02:50.042Z,11.90
2017-11-27T08:03:50.055Z,11.70
2017-11-27T08:05:42.701Z,9.00
2017-11-27T08:06:43.562Z,7.90
2017-11-27T08:08:37.102Z,8.90
2017-11-27T08:09:37.132Z,10.20
2017-11-27T08:11:29.592Z,10.70
2017-11-27T08:12:31.581Z,11.00
2017-11-27T08:14:24.274Z,10.10
2017-11-27T08:15:23.601Z,9.80
2017-11-27T08:17:16.920Z,9.20
2017-11-27T08:18:17.804Z,8.00
2017-11-27T08:20:11.365Z,8.80
2017-11-27T08:22:23.899Z,8.00
2017-11-27T08:23:24.768Z,10.30
2017-11-27T08:25:16.418Z,9.10
2017-11-27T08:26:15.685Z,10.20
2017-11-27T08:28:10.769Z,8.10
2017-11-27T08:29:11.875Z,7.70
2017-11-27T08:31:04.534Z,7.90
2017-11-27T08:32:05.819Z,7.70
2017-11-27T08:33:58.093Z,7.30
2017-11-27T08:34:59.164Z,8.20
2017-11-27T08:36:51.412Z,8.60
2017-11-27T08:39:05.495Z,8.30
2017-11-27T08:40:05.950Z,7.00
2017-11-27T08:41:59.515Z,7.20
2017-11-27T08:42:58.396Z,7.10
2017-11-27T08:44:52.009Z,7.00
2017-11-27T08:47:06.510Z,9.60
2017-11-27T08:48:05.609Z,11.10
2017-11-27T08:50:00.663Z,8.40
2017-11-27T08:51:00.053Z,7.60
2017-11-27T08:52:53.596Z,8.20
2017-11-27T08:53:53.597Z,8.10
2017-11-27T08:55:46.088Z,7.10
2017-11-27T08:56:47.153Z,9.50
2017-11-27T08:58:40.782Z,7.00
2017-11-27T08:59:40.696Z,7.00
2017-11-27T09:01:31.439Z,7.60
2017-11-27T09:03:47.672Z,7.60
2017-11-27T09:04:47.684Z,7.60
2017-11-27T09:06:40.401Z,7.30
2017-11-27T09:07:41.344Z,8.40
2017-11-27T09:09:35.142Z,7.00
2017-11-27T09:10:34.800Z,7.90
2017-11-27T09:12:32.793Z,9.30
2017-11-27T09:13:28.319Z,8.70
2017-11-27T09:15:20.724Z,7.20
2017-11-27T09:16:20.513Z,7.60
2017-11-27T09:18:31.032Z,9.00
2017-11-27T09:19:15.447Z,7.90
2017-11-27T09:21:09.045Z,7.70
2017-11-27T09:22:09.045Z,7.90
2017-11-27T09:24:01.520Z,8.00
2017-11-27T09:25:01.794Z,7.10
2017-11-27T09:26:56.735Z,7.20
2017-11-27T09:29:09.579Z,7.20
2017-11-27T09:30:08.734Z,9.00
2017-11-27T09:32:02.111Z,9.10
2017-11-27T09:33:03.100Z,9.30
2017-11-27T09:34:58.810Z,9.00
2017-11-27T09:35:56.642Z,8.50
2017-11-27T09:37:49.346Z,6.90
2017-11-27T09:38:48.220Z,7.70
2017-11-27T09:40:42.887Z,8.90
2017-11-27T09:41:43.139Z,7.80
2017-11-27T09:43:36.437Z,7.10
2017-11-27T09:44:37.538Z,7.30
2017-11-27T09:46:30.679Z,7.00
2017-11-27T09:47:30.881Z,6.70
2017-11-27T09:49:23.532Z,6.70
2017-11-27T09:50:24.445Z,6.80
2017-11-27T09:52:18.263Z,6.90
2017-11-27T09:53:17.454Z,6.30
2017-11-27T09:55:11.579Z,7.00
2017-11-27T09:56:08.934Z,5.90
2017-11-27T09:58:04.219Z,7.00
2017-11-27T09:59:04.302Z,7.40
2017-11-27T10:01:01.864Z,7.60
2017-11-27T10:01:58.673Z,6.10
2017-11-27T10:03:49.376Z,7.60
2017-11-27T10:04:52.295Z,5.90
2017-11-27T10:07:11.864Z,6.20
2017-11-27T10:07:44.245Z,5.70
2017-11-27T10:09:39.356Z,5.70
2017-11-27T10:10:37.630Z,6.10
2017-11-27T10:12:32.057Z,6.40
2017-11-27T10:13:33.037Z,6.50
2017-11-27T10:15:26.482Z,5.80
2017-11-27T10:16:24.754Z,6.00
2017-11-27T10:18:20.584Z,6.10
2017-11-27T10:19:20.028Z,5.60
2017-11-27T10:21:13.631Z,5.30
2017-11-27T10:22:13.598Z,5.80
2017-11-27T10:24:06.314Z,8.10
2017-11-27T10:25:07.146Z,5.80
2017-11-27T10:27:00.704Z,5.50
2017-11-27T10:28:00.739Z,5.40
2017-11-27T10:29:53.312Z,5.90
2017-11-27T10:30:54.220Z,5.90
2017-11-27T10:32:47.788Z,5.70
2017-11-27T10:33:47.774Z,5.50
2017-11-27T10:35:40.338Z,6.00
2017-11-27T10:36:41.383Z,5.70
2017-11-27T10:38:37.077Z,5.50
2017-11-27T10:39:36.322Z,5.50
2017-11-27T10:41:28.170Z,5.50
2017-11-27T10:42:26.773Z,5.60
2017-11-27T10:44:19.119Z,5.10
2017-11-27T10:45:22.053Z,5.50
2017-11-27T10:47:15.409Z,5.20
2017-11-27T10:49:29.018Z,6.30
2017-11-27T10:50:28.963Z,5.00
2017-11-27T10:52:21.654Z,5.40
2017-11-27T10:53:23.743Z,5.50
2017-11-27T10:55:18.390Z,5.30
2017-11-27T10:56:16.085Z,5.60
2017-11-27T10:58:14.910Z,5.20
2017-11-27T10:59:09.652Z,5.50
2017-11-27T11:02:49.994Z,4.70
2017-11-27T11:03:36.778Z,4.40
2017-11-27T11:05:28.326Z,4.50
2017-11-27T11:06:26.795Z,4.50
2017-11-27T11:08:27.878Z,5.00
2017-11-27T11:09:23.070Z,4.10
2017-11-27T11:11:15.526Z,4.20
2017-11-27T11:12:15.823Z,4.20
2017-11-27T11:14:11.172Z,4.30
2017-11-27T11:16:22.998Z,4.30
2017-11-27T11:18:36.852Z,4.30
2017-11-27T11:19:36.908Z,4.50
2017-11-27T11:21:42.047Z,4.00
2017-11-27T11:22:30.106Z,4.10
2017-11-27T11:24:22.697Z,4.40
2017-11-27T11:25:23.982Z,4.30
2017-11-27T11:27:21.558Z,4.80
2017-11-27T11:28:17.587Z,4.20
2017-11-27T11:30:30.180Z,4.30
2017-11-27T11:32:02.200Z,4.50
2017-11-27T11:33:04.475Z,4.50
2017-11-27T11:35:17.057Z,4.30
2017-11-27T11:36:51.308Z,3.70
2017-11-27T11:37:51.300Z,3.90
2017-11-27T11:40:05.915Z,4.00
2017-11-27T11:40:44.902Z,3.60
2017-11-27T11:42:36.763Z,3.60
2017-11-27T11:43:38.453Z,3.60
2017-11-27T11:45:31.827Z,3.60
2017-11-27T11:47:45.438Z,3.50
2017-11-27T11:48:44.917Z,3.90
2017-11-27T11:50:40.930Z,4.00
2017-11-27T11:51:38.966Z,3.60
2017-11-27T11:53:31.346Z,3.60
2017-11-27T11:54:30.587Z,3.30
2017-11-27T11:56:26.289Z,3.30
2017-11-27T11:58:38.005Z,3.20
2017-11-27T11:59:39.535Z,3.40
2017-11-27T12:01:33.243Z,4.00
2017-11-27T12:02:33.069Z,3.80
2017-11-27T12:04:23.675Z,3.80
2017-11-27T12:05:26.711Z,3.50
2017-11-27T12:07:18.130Z,3.70
2017-11-27T12:09:34.171Z,3.60
2017-11-27T12:11:45.085Z,3.80
2017-11-27T12:12:45.978Z,3.50
2017-11-27T12:14:39.658Z,4.00
2017-11-27T12:15:40.496Z,3.80
2017-11-27T12:17:32.680Z,3.60
2017-11-27T12:18:34.109Z,3.90
2017-11-27T12:20:30.220Z,4.50
2017-11-27T12:22:41.061Z,4.70
2017-11-27T12:24:54.233Z,3.50
2017-11-27T12:25:52.823Z,3.90
2017-11-27T12:27:47.300Z,3.90
2017-11-27T12:28:48.022Z,4.00
2017-11-27T12:30:59.740Z,3.90
2017-11-27T12:32:33.266Z,4.50
2017-11-27T12:33:34.252Z,4.10
2017-11-27T12:35:26.511Z,4.50
2017-11-27T12:36:28.426Z,4.90
2017-11-27T12:38:21.001Z,4.00
2017-11-27T12:39:20.654Z,4.20
2017-11-27T12:41:14.420Z,4.30
2017-11-27T12:42:16.499Z,4.10
2017-11-27T12:44:08.673Z,3.80
2017-11-27T12:45:09.213Z,3.80
2017-11-27T12:47:00.532Z,3.50
2017-11-27T12:49:21.190Z,3.60
2017-11-27T12:51:48.571Z,3.80
2017-11-27T12:52:29.660Z,3.90
2017-11-27T12:54:37.269Z,3.60
2017-11-27T12:55:22.282Z,3.30
2017-11-27T12:57:14.285Z,4.20
2017-11-27T12:58:16.618Z,4.10
2017-11-27T13:00:11.548Z,3.80
2017-11-27T13:02:22.707Z,3.70
2017-11-27T13:04:34.068Z,3.40
2017-11-27T13:05:36.961Z,3.90
2017-11-27T13:07:30.554Z,3.90
2017-11-27T13:09:41.787Z,3.50
2017-11-27T13:10:43.935Z,3.10
2017-11-27T13:12:39.389Z,3.50
2017-11-27T13:13:37.520Z,3.90
2017-11-27T13:15:31.039Z,4.10
2017-11-27T13:16:31.042Z,3.50
2017-11-27T13:18:21.788Z,3.70
2017-11-27T13:19:24.608Z,3.90
2017-11-27T13:21:18.196Z,4.40
2017-11-27T13:22:16.545Z,4.30
2017-11-27T13:24:11.623Z,5.30
2017-11-27T13:25:11.798Z,4.60
2017-11-27T13:27:02.417Z,3.90
2017-11-27T13:28:05.272Z,4.30
2017-11-27T13:29:58.814Z,4.70
2017-11-27T13:30:59.004Z,3.80
2017-11-27T13:32:52.388Z,4.20
2017-11-27T13:33:52.385Z,4.20
2017-11-27T13:35:44.918Z,4.80
2017-11-27T13:37:59.359Z,4.50
2017-11-27T13:38:59.287Z,4.70
2017-11-27T13:40:51.797Z,5.50
2017-11-27T13:41:52.129Z,4.70
2017-11-27T13:43:48.391Z,5.10
2017-11-27T13:44:43.802Z,4.80
2017-11-27T13:46:39.065Z,3.90
2017-11-27T13:47:39.068Z,4.00
2017-11-27T13:49:33.630Z,4.00
2017-11-27T13:50:33.633Z,4.00
2017-11-27T13:52:24.946Z,4.10
2017-11-27T13:53:27.228Z,3.80
2017-11-27T13:55:19.564Z,4.50
2017-11-27T13:56:20.718Z,4.00
2017-11-27T13:58:13.358Z,4.30
2017-11-27T13:59:13.514Z,3.70
2017-11-27T14:01:06.253Z,4.90
2017-11-27T14:02:07.815Z,3.80
2017-11-27T14:04:00.858Z,4.40
2017-11-27T14:04:59.749Z,4.60
2017-11-27T14:06:55.854Z,3.90
2017-11-27T14:07:54.953Z,4.00
2017-11-27T14:09:46.722Z,4.10
2017-11-27T14:12:06.637Z,4.30
2017-11-27T14:13:01.037Z,4.40
2017-11-27T14:14:54.403Z,3.80
2017-11-27T14:15:54.309Z,4.20
2017-11-27T14:17:48.217Z,4.60
2017-11-27T14:18:49.159Z,4.20
2017-11-27T14:20:42.880Z,3.60
2017-11-27T14:22:54.929Z,3.80
2017-11-27T14:23:55.394Z,3.60
2017-11-27T14:25:48.638Z,3.90
2017-11-27T14:26:48.812Z,3.80
2017-11-27T14:28:43.227Z,4.50
2017-11-27T14:29:41.098Z,4.90
2017-11-27T14:31:37.261Z,4.00
2017-11-27T14:33:48.248Z,4.20
2017-11-27T14:34:50.100Z,4.20
2017-11-27T14:36:44.193Z,4.40
2017-11-27T14:37:43.593Z,4.60
2017-11-27T14:39:36.345Z,4.50
2017-11-27T14:40:37.208Z,5.30
2017-11-27T14:42:32.192Z,4.20
2017-11-27T14:43:30.854Z,4.10
2017-11-27T14:45:25.222Z,4.00
2017-11-27T14:46:24.322Z,4.10
2017-11-27T14:48:16.927Z,5.00
2017-11-27T14:49:17.824Z,4.50
2017-11-27T14:51:11.562Z,4.50
2017-11-27T14:52:13.395Z,4.40
2017-11-27T14:54:03.313Z,4.40
2017-11-27T14:55:04.953Z,4.50
2017-11-27T14:56:55.691Z,4.10
2017-11-27T14:57:58.568Z,3.80
2017-11-27T14:59:57.161Z,4.50
2017-11-27T15:00:52.065Z,3.50
2017-11-27T15:02:45.707Z,4.80
2017-11-27T15:05:00.113Z,4.20
2017-11-27T15:05:59.229Z,4.70
2017-11-27T15:07:51.594Z,4.40
2017-11-27T15:08:52.168Z,4.00
2017-11-27T15:10:45.132Z,4.50
2017-11-27T15:11:46.706Z,5.50
2017-11-27T15:13:39.695Z,4.60
2017-11-27T15:14:39.770Z,5.00
2017-11-27T15:16:32.346Z,4.70
2017-11-27T15:17:33.284Z,4.70
2017-11-27T15:19:24.166Z,5.30
2017-11-27T15:20:26.874Z,5.10
2017-11-27T15:22:19.366Z,5.10
2017-11-27T15:23:20.445Z,5.10
2017-11-27T15:25:13.937Z,5.30
2017-11-27T15:26:14.074Z,4.80
2017-11-27T15:28:06.788Z,5.40
2017-11-27T15:29:07.516Z,5.30
2017-11-27T15:31:01.070Z,5.40
2017-11-27T15:32:00.265Z,5.10
2017-11-27T15:33:53.729Z,5.20
2017-11-27T15:34:53.872Z,4.80
2017-11-27T15:36:48.168Z,4.80
2017-11-27T15:37:46.510Z,5.20
2017-11-27T15:39:48.349Z,4.50
2017-11-27T15:40:41.349Z,4.50
2017-11-27T15:42:38.349Z,4.80
2017-11-27T15:43:35.275Z,4.80
2017-11-27T15:45:27.981Z,5.10
2017-11-27T15:46:28.860Z,5.10
2017-11-27T15:48:22.372Z,5.00
2017-11-27T15:49:22.407Z,4.50
2017-11-27T15:51:14.923Z,5.20
2017-11-27T15:53:29.445Z,5.10
2017-11-27T15:54:29.400Z,5.00
2017-11-27T15:56:22.077Z,5.00
2017-11-27T15:57:21.775Z,5.40
2017-11-27T15:59:19.573Z,5.10
2017-11-27T16:00:16.527Z,5.00
2017-11-27T16:02:08.156Z,4.70
2017-11-27T16:04:23.473Z,5.60
2017-11-27T16:06:52.438Z,6.00
2017-11-27T16:08:50.341Z,6.30
2017-11-27T16:09:48.282Z,5.90
2017-11-27T16:11:42.972Z,5.70
2017-11-27T16:12:43.675Z,5.70
2017-11-27T16:14:36.749Z,5.50
2017-11-27T16:15:36.577Z,5.30
2017-11-27T16:17:30.229Z,5.90
2017-11-27T16:18:30.953Z,5.90
2017-11-27T16:20:22.748Z,5.80
2017-11-27T16:22:37.943Z,6.30
2017-11-27T16:23:37.957Z,6.20
2017-11-27T16:25:30.430Z,6.30
2017-11-27T16:26:31.615Z,5.90
2017-11-27T16:28:24.965Z,7.90
2017-11-27T16:30:46.584Z,6.00
2017-11-27T16:32:51.544Z,6.40
2017-11-27T16:33:51.861Z,6.00
2017-11-27T16:35:45.458Z,7.30
2017-11-27T16:36:45.443Z,7.10
2017-11-27T16:38:38.055Z,7.10
2017-11-27T16:39:39.005Z,6.90
2017-11-27T16:41:32.560Z,6.90
2017-11-27T16:43:57.398Z,7.00
2017-11-27T16:44:45.953Z,6.70
2017-11-27T16:46:39.534Z,7.40
2017-11-27T16:47:39.610Z,7.30
2017-11-27T16:49:30.377Z,6.90
2017-11-27T16:50:32.379Z,6.90
2017-11-27T16:52:26.631Z,6.90
2017-11-27T16:53:26.623Z,6.90
2017-11-27T16:55:17.442Z,7.90
2017-11-27T16:56:20.306Z,7.40
2017-11-27T16:58:13.748Z,7.00
2017-11-27T16:59:13.761Z,7.10
2017-11-27T17:01:06.199Z,7.10
2017-11-27T17:02:07.337Z,6.90
2017-11-27T17:04:00.780Z,6.00
2017-11-27T17:05:00.847Z,6.70
2017-11-27T17:06:52.462Z,5.80
2017-11-27T17:07:54.251Z,5.90
2017-11-27T17:09:46.109Z,5.80
2017-11-27T17:10:47.972Z,5.60
2017-11-27T17:12:42.119Z,5.70
2017-11-27T17:13:41.954Z,5.80
2017-11-27T17:15:35.076Z,5.30
2017-11-27T17:16:35.084Z,5.50
2017-11-27T17:18:27.730Z,6.00
2017-11-27T17:19:28.639Z,5.30
2017-11-27T17:21:23.125Z,4.70
2017-11-27T17:22:22.238Z,5.10
2017-11-27T17:24:14.855Z,5.00
2017-11-27T17:25:13.153Z,5.30
2017-11-27T17:27:09.298Z,5.30
2017-11-27T17:28:09.313Z,5.80
2017-11-27T17:30:01.943Z,5.30
2017-11-27T17:31:02.867Z,4.80
2017-11-27T17:32:56.416Z,5.20
2017-11-27T17:33:56.417Z,5.50
2017-11-27T17:35:49.104Z,5.40
2017-11-27T17:36:49.983Z,5.20
2017-11-27T17:38:43.033Z,5.70
2017-11-27T17:39:43.519Z,5.60
2017-11-27T17:41:36.958Z,5.90
2017-11-27T17:42:35.096Z,6.10
2017-11-27T17:44:29.379Z,7.00
2017-11-27T17:45:30.691Z,6.80
2017-11-27T17:47:24.237Z,6.60
2017-11-27T17:48:24.213Z,7.60
2017-11-27T17:50:16.915Z,7.50
2017-11-27T17:51:17.804Z,7.40
2017-11-27T17:53:11.371Z,7.90
2017-11-27T17:54:11.328Z,7.40
2017-11-27T17:56:04.030Z,7.60
2017-11-27T17:57:04.874Z,7.70
2017-11-27T17:58:57.477Z,6.90
2017-11-27T17:59:59.339Z,6.70
2017-11-27T18:01:52.579Z,7.10
2017-11-27T18:04:05.402Z,6.30
2017-11-27T18:05:02.771Z,7.10
2017-11-27T18:06:57.977Z,7.00
2017-11-27T18:07:58.964Z,6.80
2017-11-27T18:09:50.540Z,6.50
2017-11-27T18:10:52.514Z,6.60
2017-11-27T18:12:45.006Z,6.60
2017-11-27T18:13:46.981Z,6.60
2017-11-27T18:15:37.700Z,6.30
2017-11-27T18:16:37.914Z,6.60
2017-11-27T18:18:33.785Z,6.40
2017-11-27T18:19:33.194Z,6.20
2017-11-27T18:21:26.873Z,6.90
2017-11-27T18:22:24.094Z,6.90
2017-11-27T18:24:19.866Z,6.30
2017-11-27T18:25:20.339Z,6.10
2017-11-27T18:27:13.854Z,6.50
2017-11-27T18:28:12.133Z,6.30
2017-11-27T18:30:08.024Z,6.10
2017-11-27T18:31:07.472Z,5.90
2017-11-27T18:33:01.006Z,5.50
2017-11-27T18:35:13.205Z,5.90
2017-11-27T18:36:14.384Z,5.30
2017-11-27T18:38:22.794Z,5.80
2017-11-27T18:39:07.945Z,6.00
2017-11-27T18:41:00.736Z,6.00
2017-11-27T18:42:01.541Z,5.50
2017-11-27T18:43:54.210Z,6.10
2017-11-27T18:44:53.193Z,5.90
2017-11-27T18:46:47.749Z,6.90
2017-11-27T18:47:48.653Z,6.50
2017-11-27T18:49:42.209Z,6.70
2017-11-27T18:50:42.169Z,6.80
2017-11-27T18:52:34.701Z,6.40
2017-11-27T18:53:35.804Z,7.00
2017-11-27T18:55:29.288Z,7.00
2017-11-27T18:56:29.288Z,7.40
2017-11-27T18:58:21.746Z,8.10
2017-11-27T18:59:22.923Z,7.70
2017-11-27T19:01:16.291Z,7.80
2017-11-27T19:02:16.411Z,7.10
2017-11-27T19:04:09.447Z,7.40
2017-11-27T19:05:09.977Z,7.80
2017-11-27T19:07:03.521Z,8.00
2017-11-27T19:08:03.559Z,8.00
2017-11-27T19:09:57.679Z,7.50
2017-11-27T19:10:57.245Z,7.20
2017-11-27T19:12:49.587Z,7.60
2017-11-27T19:13:50.634Z,7.70
2017-11-27T19:15:44.233Z,7.00
2017-11-27T19:16:44.232Z,7.60
2017-11-27T19:18:37.081Z,6.40
2017-11-27T19:19:37.790Z,6.70
2017-11-27T19:21:31.515Z,5.50
2017-11-27T19:22:31.323Z,5.90
2017-11-27T19:24:23.956Z,6.00
2017-11-27T19:25:24.933Z,5.30
2017-11-27T19:27:16.184Z,4.90
2017-11-27T19:28:18.452Z,5.50
2017-11-27T19:30:10.992Z,5.30
2017-11-27T19:31:12.009Z,5.10
2017-11-27T19:33:05.541Z,5.90